クリチバ の空港の天気 - METARとTAF

アフォンソ・ペーナ国際空港 ( SBCT / CWB ) - ブラジル パラナ州クリチバ
飛行場実況気象(Metar)
観測時間11/21 10:00 BRST (11/21 12:00 UTC)
風向・風速東北東 5m/s
視程10km以上
天気現象
全天の8割程度の雲 雲底高度 370m
全天の8割程度の雲 雲底高度 610m
気温21℃
湿度78%
気圧1021hPa
METARSBCT 211200Z 07009KT 9999 BKN012 BKN020 21/17 Q1021
過去の天気等 Google飛行場航空写真 Wunderground天気予報

過去48時間のMETAR

飛行場予報(TAF)
発表時間: 11/21 07:30 BRST (11/21 09:30 UTC)
予報対象時間: 21日10時 BRST ~ 22日10時 BRST
風向・風速東 4m/s
視程10km以上
全天の8割程度の雲 雲底高度 460m
21日10時 BRST ~ 21日12時 BRST に徐々に
全天の4割程度の雲 雲底高度 910m
21日20時 BRST ~ 21日22時 BRST に徐々に
全天の8割程度の雲 雲底高度 240m
22日8時 BRST ~ 22日10時 BRST に徐々に
全天の8割程度の雲 雲底高度 460m
TAF SBCT 210930Z 2112/2212 09007KT 9999 BKN015 TX26/2117Z TN16/2208Z
BECMG 2112/2114 SCT030
BECMG 2122/2124 BKN008
BECMG 2210/2212 BKN015 RMK PER